createdAt,value
2017-11-29T00:01:42.829Z,52.92
2017-11-29T00:04:10.650Z,49.75
2017-11-29T00:06:38.473Z,60.20
2017-11-29T00:09:06.331Z,69.53
2017-11-29T00:11:34.179Z,41.28
2017-11-29T00:14:02.072Z,53.63
2017-11-29T00:16:29.918Z,59.33
2017-11-29T00:18:57.815Z,58.65
2017-11-29T00:21:25.641Z,62.65
2017-11-29T00:23:53.510Z,68.47
2017-11-29T00:26:21.380Z,67.10
2017-11-29T00:28:49.263Z,67.87
2017-11-29T00:31:17.109Z,42.28
2017-11-29T00:33:44.946Z,65.80
2017-11-29T00:36:12.786Z,68.80
2017-11-29T00:38:40.614Z,59.72
2017-11-29T00:41:08.500Z,49.28
2017-11-29T00:43:36.333Z,49.33
2017-11-29T00:46:04.166Z,67.35
2017-11-29T00:48:32.005Z,61.20
2017-11-29T00:50:59.853Z,55.55
2017-11-29T00:53:27.718Z,66.82
2017-11-29T00:55:55.574Z,73.68
2017-11-29T00:58:23.410Z,50.35
2017-11-29T01:00:51.270Z,41.08
2017-11-29T01:03:19.105Z,67.25
2017-11-29T01:05:46.982Z,59.80
2017-11-29T01:08:14.841Z,54.03
2017-11-29T01:10:42.834Z,59.15
2017-11-29T01:13:10.726Z,60.92
2017-11-29T01:15:38.571Z,42.85
2017-11-29T01:18:06.486Z,64.03
2017-11-29T01:20:34.374Z,53.13
2017-11-29T01:23:02.199Z,56.22
2017-11-29T01:25:30.047Z,66.25
2017-11-29T01:27:57.882Z,58.95
2017-11-29T01:30:25.738Z,59.40
2017-11-29T01:32:53.586Z,68.75
2017-11-29T01:35:21.430Z,64.12
2017-11-29T01:37:49.265Z,70.28
2017-11-29T01:40:17.098Z,61.85
2017-11-29T01:42:44.965Z,65.37
2017-11-29T01:45:12.830Z,66.80
2017-11-29T01:47:40.729Z,71.87
2017-11-29T01:50:08.564Z,74.60
2017-11-29T01:52:36.393Z,77.03
2017-11-29T01:55:04.214Z,72.43
2017-11-29T01:57:32.061Z,59.83
2017-11-29T01:59:59.947Z,63.53
2017-11-29T02:02:27.838Z,66.60
2017-11-29T02:04:55.729Z,77.00
2017-11-29T02:07:23.598Z,68.70
2017-11-29T02:09:51.457Z,67.18
2017-11-29T02:12:19.307Z,69.25
2017-11-29T02:14:47.172Z,71.43
2017-11-29T02:17:15.059Z,70.82
2017-11-29T02:19:42.909Z,70.65
2017-11-29T02:22:10.761Z,82.43
2017-11-29T02:24:38.630Z,80.87
2017-11-29T02:27:06.496Z,63.83
2017-11-29T02:29:34.364Z,68.25
2017-11-29T02:32:02.224Z,78.90
2017-11-29T02:34:30.079Z,76.45
2017-11-29T02:36:57.962Z,72.28
2017-11-29T02:39:25.830Z,66.45
2017-11-29T02:41:59.698Z,70.03
2017-11-29T02:44:27.525Z,82.12
2017-11-29T02:46:55.365Z,90.22
2017-11-29T02:49:23.205Z,59.95
2017-11-29T02:51:51.050Z,76.30
2017-11-29T02:54:18.914Z,84.32
2017-11-29T02:56:46.773Z,73.32
2017-11-29T02:59:14.631Z,92.93
2017-11-29T03:01:42.491Z,86.93
2017-11-29T03:04:10.368Z,82.32
2017-11-29T03:06:38.216Z,91.90
2017-11-29T03:09:06.062Z,77.10
2017-11-29T03:11:33.920Z,74.97
2017-11-29T03:14:01.841Z,80.78
2017-11-29T03:16:29.676Z,63.35
2017-11-29T03:18:57.523Z,58.47
2017-11-29T03:21:25.378Z,78.10
2017-11-29T03:23:53.259Z,83.28
2017-11-29T03:26:21.113Z,80.85
2017-11-29T03:28:48.931Z,84.10
2017-11-29T03:31:16.768Z,90.87
2017-11-29T03:33:44.617Z,76.95
2017-11-29T03:36:12.482Z,71.32
2017-11-29T03:38:40.345Z,86.78
2017-11-29T03:41:08.238Z,80.18
2017-11-29T03:43:36.064Z,96.00
2017-11-29T03:46:03.897Z,77.07
2017-11-29T03:48:31.759Z,61.72
2017-11-29T03:50:59.644Z,79.65
2017-11-29T03:53:27.491Z,79.95
2017-11-29T03:55:55.359Z,83.12
2017-11-29T03:58:23.205Z,85.35
2017-11-29T04:00:51.062Z,74.62
2017-11-29T04:03:18.915Z,88.62
2017-11-29T04:05:46.755Z,80.95
2017-11-29T04:08:14.578Z,78.40
2017-11-29T04:10:42.434Z,68.72
2017-11-29T04:13:10.341Z,77.22
2017-11-29T04:15:38.191Z,84.97
2017-11-29T04:18:06.061Z,81.18
2017-11-29T04:20:33.922Z,87.68
2017-11-29T04:23:01.798Z,83.93
2017-11-29T04:25:29.655Z,87.03
2017-11-29T04:27:57.544Z,75.65
2017-11-29T04:30:25.396Z,77.45
2017-11-29T04:32:53.281Z,73.25
2017-11-29T04:35:21.133Z,91.03
2017-11-29T04:37:49.017Z,85.78
2017-11-29T04:40:16.865Z,75.25
2017-11-29T04:42:44.772Z,81.95
2017-11-29T04:45:12.635Z,82.65
2017-11-29T04:47:40.485Z,70.05
2017-11-29T04:50:08.356Z,84.32
2017-11-29T04:52:36.207Z,78.37
2017-11-29T04:55:04.089Z,68.10
2017-11-29T04:57:31.955Z,78.45
2017-11-29T04:59:59.821Z,80.68
2017-11-29T05:02:27.673Z,53.97
2017-11-29T05:04:55.524Z,82.70
2017-11-29T05:07:23.403Z,84.25
2017-11-29T05:09:51.279Z,78.22
2017-11-29T05:12:19.141Z,83.95
2017-11-29T05:14:46.982Z,67.28
2017-11-29T05:17:14.832Z,73.03
2017-11-29T05:19:42.750Z,81.10
2017-11-29T05:22:10.630Z,75.10
2017-11-29T05:24:38.702Z,73.70
2017-11-29T05:27:06.623Z,84.97
2017-11-29T05:29:34.507Z,76.85
2017-11-29T05:32:02.379Z,83.57
2017-11-29T05:34:30.242Z,80.70
2017-11-29T05:36:58.178Z,55.78
2017-11-29T05:39:26.118Z,87.93
2017-11-29T05:41:54.797Z,93.87
2017-11-29T05:44:23.916Z,76.93
2017-11-29T05:46:51.773Z,87.80
2017-11-29T05:49:19.626Z,92.65
2017-11-29T05:51:47.468Z,94.87
2017-11-29T05:54:15.321Z,74.15
2017-11-29T05:56:43.157Z,76.50
2017-11-29T05:59:11.056Z,62.20
2017-11-29T06:01:38.920Z,90.47
2017-11-29T06:04:06.935Z,66.18
2017-11-29T06:06:34.853Z,83.43
2017-11-29T06:09:02.723Z,64.82
2017-11-29T06:11:30.583Z,91.60
2017-11-29T06:13:58.485Z,74.15
2017-11-29T06:16:26.361Z,95.57
2017-11-29T06:18:54.213Z,78.82
2017-11-29T06:21:22.067Z,88.10
2017-11-29T06:23:49.938Z,80.05
2017-11-29T06:26:17.793Z,94.43
2017-11-29T06:28:45.698Z,84.87
2017-11-29T06:31:13.577Z,98.20
2017-11-29T06:33:41.432Z,97.82
2017-11-29T06:36:09.300Z,92.32
2017-11-29T06:38:37.286Z,108.10
2017-11-29T06:41:05.242Z,98.28
2017-11-29T06:43:33.191Z,93.60
2017-11-29T06:46:01.132Z,84.45
2017-11-29T06:48:29.063Z,81.80
2017-11-29T06:50:56.927Z,97.32
2017-11-29T06:53:24.767Z,96.20
2017-11-29T06:55:52.883Z,89.03
2017-11-29T06:58:20.813Z,103.07
2017-11-29T07:00:48.709Z,106.87
2017-11-29T07:03:16.586Z,106.57
2017-11-29T07:05:44.450Z,104.32
2017-11-29T07:08:12.350Z,117.85
2017-11-29T07:10:40.183Z,106.70
2017-11-29T07:13:08.269Z,110.37
2017-11-29T07:15:36.364Z,97.07
2017-11-29T07:18:04.209Z,85.20
2017-11-29T07:20:32.478Z,91.25
2017-11-29T07:23:00.855Z,106.20
2017-11-29T07:25:29.360Z,94.65
2017-11-29T07:27:57.608Z,105.00
2017-11-29T07:30:25.710Z,94.85
2017-11-29T07:32:54.057Z,78.05
2017-11-29T07:35:21.990Z,95.78
2017-11-29T07:37:49.891Z,96.22
2017-11-29T07:40:17.800Z,102.07
2017-11-29T07:42:45.673Z,108.65
2017-11-29T07:45:13.557Z,105.95
2017-11-29T07:47:41.413Z,97.45
2017-11-29T07:50:09.270Z,97.60
2017-11-29T07:52:37.158Z,113.88
2017-11-29T07:55:05.026Z,126.65
2017-11-29T07:57:32.985Z,106.43
2017-11-29T08:00:00.832Z,121.10
2017-11-29T08:02:28.674Z,132.87
2017-11-29T08:04:56.525Z,115.75
2017-11-29T08:07:24.354Z,116.25
2017-11-29T08:09:52.213Z,129.57
2017-11-29T08:12:20.073Z,91.68
2017-11-29T08:14:48.274Z,115.78
2017-11-29T08:17:16.351Z,102.70
2017-11-29T08:19:44.354Z,113.93
2017-11-29T08:22:12.244Z,118.70
2017-11-29T08:24:40.130Z,111.60
2017-11-29T08:27:07.962Z,116.45
2017-11-29T08:29:35.810Z,114.22
2017-11-29T08:32:03.666Z,105.07
2017-11-29T08:34:31.590Z,86.10
2017-11-29T08:36:59.435Z,113.70
2017-11-29T08:39:27.330Z,98.57
2017-11-29T08:41:55.167Z,108.55
2017-11-29T08:44:23.002Z,107.47
2017-11-29T08:46:50.845Z,97.03
2017-11-29T08:49:18.686Z,116.15
2017-11-29T08:51:46.534Z,106.82
2017-11-29T08:54:14.370Z,103.90
2017-11-29T08:56:42.234Z,100.03
2017-11-29T08:59:10.092Z,82.72
2017-11-29T09:01:37.933Z,112.80
2017-11-29T09:04:05.786Z,122.47
2017-11-29T09:06:33.618Z,108.72
2017-11-29T09:09:01.438Z,106.65
2017-11-29T09:11:29.337Z,106.55
2017-11-29T09:13:57.199Z,115.20
2017-11-29T09:16:25.057Z,107.37
2017-11-29T09:18:52.891Z,77.93
2017-11-29T09:21:20.756Z,102.57
2017-11-29T09:23:48.607Z,94.65
2017-11-29T09:26:16.415Z,99.37
2017-11-29T09:28:44.310Z,100.85
2017-11-29T09:31:12.195Z,88.18
2017-11-29T09:33:40.035Z,88.65
2017-11-29T09:36:07.882Z,114.32
2017-11-29T09:38:35.734Z,69.78
2017-11-29T09:41:03.556Z,90.30
2017-11-29T09:43:31.380Z,100.00
2017-11-29T09:45:59.225Z,88.35
2017-11-29T09:48:27.072Z,93.60
2017-11-29T09:50:54.899Z,89.60
2017-11-29T09:53:22.723Z,69.53
2017-11-29T09:55:50.572Z,73.62
2017-11-29T09:58:18.423Z,75.37
2017-11-29T10:00:46.262Z,84.15
2017-11-29T10:03:14.139Z,88.55
2017-11-29T10:05:42.007Z,77.72
2017-11-29T10:08:09.857Z,70.37
2017-11-29T10:10:37.707Z,54.58
2017-11-29T10:13:05.569Z,74.62
2017-11-29T10:15:33.419Z,53.30
2017-11-29T10:18:01.273Z,73.03
2017-11-29T10:20:29.111Z,78.18
2017-11-29T10:22:56.977Z,68.20
2017-11-29T10:25:24.888Z,81.55
2017-11-29T10:27:52.747Z,75.05
2017-11-29T10:30:20.594Z,74.25
2017-11-29T10:32:48.457Z,65.40
2017-11-29T10:35:16.297Z,68.10
2017-11-29T10:37:44.152Z,75.93
2017-11-29T10:40:12.012Z,76.72
2017-11-29T10:42:39.882Z,73.70
2017-11-29T10:45:07.744Z,77.50
2017-11-29T10:47:36.411Z,67.95
2017-11-29T10:50:04.278Z,85.10
2017-11-29T10:52:32.126Z,77.90
2017-11-29T10:54:59.994Z,64.70
2017-11-29T10:57:27.858Z,79.50
2017-11-29T10:59:55.728Z,79.93
2017-11-29T11:02:23.627Z,70.60
2017-11-29T11:04:51.477Z,70.57
2017-11-29T11:07:19.341Z,83.40
2017-11-29T11:09:47.199Z,74.55
2017-11-29T11:12:15.034Z,59.45
2017-11-29T11:14:43.719Z,64.03
2017-11-29T11:17:11.565Z,73.32
2017-11-29T11:19:39.426Z,81.68
2017-11-29T11:22:07.276Z,64.78
2017-11-29T11:24:35.158Z,61.35
2017-11-29T11:27:02.999Z,77.37
2017-11-29T11:29:30.849Z,74.30
2017-11-29T11:31:58.684Z,77.97
2017-11-29T11:34:26.567Z,79.53
2017-11-29T11:36:54.403Z,53.55
2017-11-29T11:39:22.250Z,74.90
2017-11-29T11:41:50.103Z,70.47
2017-11-29T11:44:17.958Z,83.47
2017-11-29T11:46:45.823Z,76.45
2017-11-29T11:49:13.674Z,71.70
2017-11-29T11:51:41.504Z,72.93
2017-11-29T11:54:09.347Z,66.87
2017-11-29T11:56:37.186Z,72.47
2017-11-29T11:59:05.040Z,74.05
2017-11-29T12:01:32.898Z,60.63
2017-11-29T12:04:00.731Z,49.03
2017-11-29T12:06:28.575Z,70.90
2017-11-29T12:08:56.446Z,73.72
2017-11-29T12:11:24.294Z,61.53
2017-11-29T12:13:52.157Z,73.57
2017-11-29T12:16:20.017Z,78.75
2017-11-29T12:18:48.246Z,72.93
2017-11-29T12:21:16.091Z,75.47
2017-11-29T12:23:43.960Z,66.15
2017-11-29T12:26:11.841Z,50.47
2017-11-29T12:28:39.984Z,77.32
2017-11-29T12:31:07.845Z,87.95
2017-11-29T12:33:35.715Z,73.35
2017-11-29T12:36:03.553Z,78.18
2017-11-29T12:38:31.416Z,70.53
2017-11-29T12:40:59.311Z,70.55
2017-11-29T12:43:27.155Z,67.70
2017-11-29T12:45:55.082Z,57.90
2017-11-29T12:48:29.060Z,48.65
2017-11-29T12:51:03.118Z,75.00
2017-11-29T12:53:30.971Z,59.38
2017-11-29T12:55:58.898Z,77.70
2017-11-29T12:58:26.754Z,79.10
2017-11-29T13:00:54.620Z,75.87
2017-11-29T13:03:23.258Z,77.47
2017-11-29T13:05:51.120Z,82.72
2017-11-29T13:08:18.962Z,83.07
2017-11-29T13:10:46.853Z,81.82
2017-11-29T13:13:14.725Z,80.12
2017-11-29T13:15:42.594Z,91.07
2017-11-29T13:18:10.461Z,83.90
2017-11-29T13:20:38.330Z,92.57
2017-11-29T13:23:06.246Z,74.90
2017-11-29T13:25:34.085Z,84.15
2017-11-29T13:28:01.984Z,80.60
2017-11-29T13:30:29.894Z,74.78
2017-11-29T13:32:57.775Z,65.60
2017-11-29T13:35:25.622Z,64.55
2017-11-29T13:37:53.501Z,78.00
2017-11-29T13:40:21.326Z,70.82
2017-11-29T13:42:49.182Z,70.47
2017-11-29T13:45:17.022Z,81.75
2017-11-29T13:47:44.911Z,75.93
2017-11-29T13:50:12.754Z,82.37
2017-11-29T13:52:40.638Z,69.00
2017-11-29T13:55:08.485Z,74.93
2017-11-29T13:57:36.358Z,73.40
2017-11-29T14:00:04.203Z,78.07
2017-11-29T14:02:32.027Z,82.97
2017-11-29T14:04:59.844Z,66.17
2017-11-29T14:07:27.682Z,63.35
2017-11-29T14:09:55.517Z,74.45
2017-11-29T14:12:23.363Z,73.75
2017-11-29T14:14:51.196Z,71.37
2017-11-29T14:17:19.073Z,78.82
2017-11-29T14:19:46.930Z,78.07
2017-11-29T14:22:14.793Z,69.00
2017-11-29T14:24:42.663Z,67.57
2017-11-29T14:27:10.537Z,69.37
2017-11-29T14:29:38.382Z,54.63
2017-11-29T14:32:07.167Z,64.97
2017-11-29T14:34:35.014Z,82.40
2017-11-29T14:37:02.869Z,74.75
2017-11-29T14:39:30.742Z,47.40
2017-11-29T14:41:58.589Z,77.12
2017-11-29T14:44:26.425Z,84.78
2017-11-29T14:46:54.244Z,84.32
2017-11-29T14:49:22.080Z,64.22
2017-11-29T14:51:49.924Z,63.30
2017-11-29T14:54:17.780Z,71.30
2017-11-29T14:56:45.629Z,80.30
2017-11-29T14:59:13.620Z,72.15
2017-11-29T15:01:41.528Z,59.30
2017-11-29T15:04:09.438Z,80.53
2017-11-29T15:06:37.305Z,56.60
2017-11-29T15:09:05.158Z,76.62
2017-11-29T15:11:33.010Z,58.92
2017-11-29T15:14:01.944Z,78.05
2017-11-29T15:16:29.781Z,36.60
2017-11-29T15:18:57.655Z,68.40
2017-11-29T15:21:25.523Z,72.57
2017-11-29T15:23:53.386Z,74.87
2017-11-29T15:26:21.255Z,76.03
2017-11-29T15:28:49.123Z,80.22
2017-11-29T15:31:16.998Z,81.65
2017-11-29T15:33:44.957Z,76.72
2017-11-29T15:36:12.866Z,93.35
2017-11-29T15:38:40.739Z,83.15
2017-11-29T15:41:08.603Z,77.40
2017-11-29T15:43:36.457Z,99.10
2017-11-29T15:46:04.423Z,60.85
2017-11-29T15:48:32.318Z,66.30
2017-11-29T15:51:00.336Z,75.50
2017-11-29T15:53:28.158Z,66.15
2017-11-29T15:55:56.706Z,82.68
2017-11-29T15:58:24.574Z,71.10
2017-11-29T16:00:52.424Z,75.07
2017-11-29T16:03:20.328Z,94.93
2017-11-29T16:05:48.217Z,61.40
2017-11-29T16:08:16.087Z,87.05
2017-11-29T16:10:44.006Z,98.82
2017-11-29T16:13:11.898Z,92.20
2017-11-29T16:15:39.759Z,84.65
2017-11-29T16:18:07.622Z,70.05
2017-11-29T16:20:35.501Z,91.60
2017-11-29T16:23:04.601Z,82.20
2017-11-29T16:25:32.506Z,74.15
2017-11-29T16:28:01.152Z,92.28
2017-11-29T16:30:28.987Z,75.65
2017-11-29T16:32:56.843Z,79.87
2017-11-29T16:35:24.716Z,66.28
2017-11-29T16:37:52.581Z,83.47
2017-11-29T16:40:20.447Z,87.18
2017-11-29T16:42:49.105Z,55.72
2017-11-29T16:45:17.000Z,84.82
2017-11-29T16:47:44.865Z,75.45
2017-11-29T16:50:12.704Z,85.05
2017-11-29T16:52:40.518Z,86.78
2017-11-29T16:55:08.359Z,78.30
2017-11-29T16:57:36.223Z,90.85
2017-11-29T17:00:04.170Z,72.15
2017-11-29T17:02:32.047Z,70.87
2017-11-29T17:04:59.882Z,69.15
2017-11-29T17:07:27.718Z,79.03
2017-11-29T17:09:55.593Z,74.87
2017-11-29T17:12:23.444Z,74.90
2017-11-29T17:14:51.293Z,69.28
2017-11-29T17:17:19.157Z,77.05
2017-11-29T17:19:47.015Z,68.43
2017-11-29T17:22:14.890Z,88.20
2017-11-29T17:24:42.730Z,85.87
2017-11-29T17:27:10.578Z,73.07
2017-11-29T17:29:45.171Z,61.00
2017-11-29T17:32:13.237Z,84.28
2017-11-29T17:34:41.078Z,79.80
2017-11-29T17:37:08.946Z,76.87
2017-11-29T17:39:37.016Z,77.78
2017-11-29T17:42:04.883Z,74.37
2017-11-29T17:44:32.731Z,68.60
2017-11-29T17:47:00.568Z,92.05
2017-11-29T17:49:28.414Z,92.18
2017-11-29T17:51:56.250Z,87.68
2017-11-29T17:54:24.114Z,95.72
2017-11-29T17:56:51.959Z,98.60
2017-11-29T17:59:19.785Z,68.60
2017-11-29T18:01:47.610Z,94.62
2017-11-29T18:04:15.477Z,94.97
2017-11-29T18:06:43.343Z,89.43
2017-11-29T18:09:11.226Z,68.75
2017-11-29T18:11:39.146Z,85.90
2017-11-29T18:14:07.000Z,87.47
2017-11-29T18:16:34.883Z,99.43
2017-11-29T18:19:02.745Z,76.43
2017-11-29T18:21:30.593Z,92.88
2017-11-29T18:23:58.415Z,103.12
2017-11-29T18:26:26.242Z,98.93
2017-11-29T18:28:54.093Z,90.95
2017-11-29T18:31:21.917Z,84.55
2017-11-29T18:33:49.782Z,91.37
2017-11-29T18:36:17.634Z,84.18
2017-11-29T18:38:45.515Z,96.60
2017-11-29T18:41:13.368Z,83.37
2017-11-29T18:43:41.207Z,96.12
2017-11-29T18:46:09.415Z,90.57
2017-11-29T18:48:37.277Z,91.70
2017-11-29T18:51:05.138Z,79.93
2017-11-29T18:53:33.014Z,97.37
2017-11-29T18:56:00.859Z,85.82
2017-11-29T18:58:28.730Z,78.93
2017-11-29T19:00:56.571Z,94.95
2017-11-29T19:03:29.359Z,108.40
2017-11-29T19:05:57.213Z,84.90
2017-11-29T19:08:25.709Z,97.80
2017-11-29T19:10:53.702Z,110.57
2017-11-29T19:13:21.524Z,96.50
2017-11-29T19:15:49.386Z,104.25
2017-11-29T19:18:17.218Z,94.60
2017-11-29T19:20:45.084Z,76.00
2017-11-29T19:23:12.933Z,80.93
2017-11-29T19:25:40.774Z,96.15
2017-11-29T19:28:08.665Z,93.07
2017-11-29T19:30:36.532Z,111.45
2017-11-29T19:33:04.365Z,115.37
2017-11-29T19:35:32.187Z,112.55
2017-11-29T19:38:00.054Z,102.80
2017-11-29T19:40:28.046Z,108.30
2017-11-29T19:42:55.892Z,116.10
2017-11-29T19:45:23.746Z,117.68
2017-11-29T19:47:51.586Z,117.18
2017-11-29T19:50:19.623Z,114.65
2017-11-29T19:52:47.445Z,116.35
2017-11-29T19:55:15.267Z,130.87
2017-11-29T19:57:43.115Z,115.90
2017-11-29T20:00:10.950Z,120.40
2017-11-29T20:02:40.202Z,133.73
2017-11-29T20:05:08.147Z,134.45
2017-11-29T20:07:36.321Z,120.15
2017-11-29T20:10:04.466Z,156.43
2017-11-29T20:12:33.138Z,141.48
2017-11-29T20:15:01.203Z,106.10
2017-11-29T20:17:29.052Z,115.35
2017-11-29T20:19:56.933Z,147.10
2017-11-29T20:22:24.762Z,148.73
2017-11-29T20:24:52.610Z,142.68
2017-11-29T20:27:20.649Z,159.45
2017-11-29T20:29:48.651Z,153.80
2017-11-29T20:32:16.491Z,142.05
2017-11-29T20:34:44.348Z,144.62
2017-11-29T20:37:12.210Z,111.78
2017-11-29T20:39:40.038Z,113.65
2017-11-29T20:42:07.886Z,112.47
2017-11-29T20:44:35.727Z,108.30
2017-11-29T20:47:03.554Z,112.03
2017-11-29T20:49:31.415Z,111.10
2017-11-29T20:51:59.291Z,107.50
2017-11-29T20:54:27.237Z,110.30
2017-11-29T20:56:55.093Z,133.75
2017-11-29T20:59:22.958Z,104.70
2017-11-29T21:01:50.812Z,136.32
2017-11-29T21:04:18.665Z,125.90
2017-11-29T21:06:46.546Z,133.18
2017-11-29T21:09:14.394Z,118.75
2017-11-29T21:11:42.254Z,127.32
2017-11-29T21:14:10.103Z,142.32
2017-11-29T21:16:37.966Z,101.00
2017-11-29T21:19:05.798Z,122.55
2017-11-29T21:21:33.639Z,131.70
2017-11-29T21:24:01.468Z,130.73
2017-11-29T21:26:29.329Z,139.85
2017-11-29T21:28:57.173Z,116.90
2017-11-29T21:31:25.046Z,134.20
2017-11-29T21:33:52.926Z,141.23
2017-11-29T21:36:20.779Z,131.23
2017-11-29T21:38:48.607Z,122.20
2017-11-29T21:41:16.462Z,139.98
2017-11-29T21:43:44.285Z,138.82
2017-11-29T21:46:12.135Z,125.47
2017-11-29T21:48:39.982Z,127.35
2017-11-29T21:51:07.850Z,144.00
2017-11-29T21:53:35.693Z,129.23
2017-11-29T21:56:03.558Z,140.35
2017-11-29T21:58:31.446Z,144.02
2017-11-29T22:00:59.307Z,115.70
2017-11-29T22:03:27.175Z,118.53
2017-11-29T22:05:55.016Z,139.73
2017-11-29T22:08:22.889Z,138.70
2017-11-29T22:10:50.719Z,146.48
2017-11-29T22:13:18.575Z,134.05
2017-11-29T22:15:46.411Z,142.77
2017-11-29T22:18:14.279Z,131.95
2017-11-29T22:20:42.115Z,128.77
2017-11-29T22:23:09.945Z,142.85
2017-11-29T22:25:37.812Z,119.05
2017-11-29T22:28:05.677Z,157.02
2017-11-29T22:30:33.503Z,146.75
2017-11-29T22:33:01.380Z,137.93
2017-11-29T22:35:29.239Z,135.77
2017-11-29T22:37:57.089Z,113.62
2017-11-29T22:40:24.937Z,164.25
2017-11-29T22:42:52.813Z,158.37
2017-11-29T22:45:20.682Z,130.00
2017-11-29T22:47:49.335Z,132.00
2017-11-29T22:50:17.174Z,151.25
2017-11-29T22:52:45.044Z,143.90
2017-11-29T22:55:12.884Z,139.75
2017-11-29T22:57:40.767Z,108.12
2017-11-29T23:00:08.624Z,154.85
2017-11-29T23:02:36.475Z,128.18
2017-11-29T23:05:04.314Z,128.15
2017-11-29T23:07:32.186Z,136.45
2017-11-29T23:10:00.079Z,119.10
2017-11-29T23:12:27.945Z,129.43
2017-11-29T23:14:55.806Z,130.90
2017-11-29T23:17:23.650Z,117.90
2017-11-29T23:19:51.517Z,104.82
2017-11-29T23:22:19.349Z,107.43
2017-11-29T23:24:47.213Z,106.60
2017-11-29T23:27:15.069Z,130.52
2017-11-29T23:29:42.937Z,100.70
2017-11-29T23:32:10.795Z,115.43
2017-11-29T23:34:38.667Z,101.90
2017-11-29T23:37:06.533Z,138.95
2017-11-29T23:39:34.394Z,105.35
2017-11-29T23:42:02.267Z,110.80
2017-11-29T23:44:30.178Z,106.03
2017-11-29T23:46:58.051Z,109.57
2017-11-29T23:49:25.894Z,103.93
2017-11-29T23:51:53.763Z,118.57
2017-11-29T23:54:21.610Z,101.30
2017-11-29T23:56:49.478Z,89.78
2017-11-29T23:59:17.341Z,112.85
